createdAt,value
2017-12-23T00:02:06.049Z,14.57
2017-12-23T00:04:32.293Z,13.60
2017-12-23T00:06:58.516Z,14.90
2017-12-23T00:09:24.724Z,15.90
2017-12-23T00:11:50.945Z,13.37
2017-12-23T00:14:17.151Z,12.47
2017-12-23T00:16:44.109Z,16.50
2017-12-23T00:19:10.287Z,16.10
2017-12-23T00:21:36.938Z,17.10
2017-12-23T00:24:03.875Z,14.97
2017-12-23T00:26:30.056Z,15.87
2017-12-23T00:28:56.259Z,16.37
2017-12-23T00:31:23.231Z,17.20
2017-12-23T00:33:49.418Z,17.60
2017-12-23T00:36:16.544Z,12.93
2017-12-23T00:38:42.757Z,18.10
2017-12-23T00:41:08.960Z,16.40
2017-12-23T00:43:35.159Z,19.70
2017-12-23T00:46:02.092Z,17.03
2017-12-23T00:48:28.300Z,18.67
2017-12-23T00:50:54.483Z,23.97
2017-12-23T00:53:21.432Z,16.93
2017-12-23T00:55:48.262Z,25.03
2017-12-23T00:58:15.335Z,28.00
2017-12-23T01:00:41.520Z,33.70
2017-12-23T01:03:08.449Z,43.00
2017-12-23T01:05:34.680Z,24.77
2017-12-23T01:08:00.860Z,28.97
2017-12-23T01:10:28.239Z,26.53
2017-12-23T01:12:54.415Z,23.87
2017-12-23T01:15:20.599Z,23.23
2017-12-23T01:17:46.815Z,24.00
2017-12-23T01:20:12.991Z,25.30
2017-12-23T01:22:39.195Z,25.60
2017-12-23T01:25:05.384Z,15.40
2017-12-23T01:27:32.328Z,21.17
2017-12-23T01:29:59.252Z,23.93
2017-12-23T01:32:25.459Z,18.97
2017-12-23T01:34:51.743Z,15.40
2017-12-23T01:37:18.695Z,20.67
2017-12-23T01:39:45.640Z,21.83
2017-12-23T01:42:12.583Z,20.80
2017-12-23T01:44:39.508Z,19.17
2017-12-23T01:47:05.751Z,18.20
2017-12-23T01:49:32.675Z,19.07
2017-12-23T01:51:58.895Z,17.50
2017-12-23T01:54:25.080Z,19.70
2017-12-23T01:56:51.372Z,21.07
2017-12-23T01:59:18.327Z,22.70
2017-12-23T02:01:45.407Z,17.30
2017-12-23T02:04:11.587Z,19.40
2017-12-23T02:06:37.767Z,21.63
2017-12-23T02:09:04.021Z,22.17
2017-12-23T02:11:30.571Z,20.40
2017-12-23T02:13:57.316Z,16.63
2017-12-23T02:16:24.563Z,19.00
2017-12-23T02:18:52.021Z,17.63
2017-12-23T02:21:25.216Z,13.87
2017-12-23T02:23:51.442Z,16.40
2017-12-23T02:26:17.665Z,16.83
2017-12-23T02:28:44.143Z,16.17
2017-12-23T02:31:11.088Z,18.80
2017-12-23T02:33:38.011Z,18.13
2017-12-23T02:36:05.051Z,20.23
2017-12-23T02:38:31.243Z,14.43
2017-12-23T02:40:57.639Z,19.80
2017-12-23T02:43:24.574Z,18.97
2017-12-23T02:45:50.755Z,15.13
2017-12-23T02:48:16.959Z,22.57
2017-12-23T02:50:43.879Z,17.13
2017-12-23T02:53:10.084Z,17.10
2017-12-23T02:55:36.268Z,19.20
2017-12-23T02:58:02.510Z,18.40
2017-12-23T03:00:32.998Z,17.40
2017-12-23T03:02:59.211Z,19.40
2017-12-23T03:05:25.437Z,15.07
2017-12-23T03:07:51.628Z,15.73
2017-12-23T03:10:17.837Z,16.20
2017-12-23T03:12:44.028Z,19.17
2017-12-23T03:15:10.235Z,19.73
2017-12-23T03:17:36.420Z,18.53
2017-12-23T03:20:03.408Z,15.30
2017-12-23T03:22:29.595Z,15.63
2017-12-23T03:24:56.584Z,20.93
2017-12-23T03:27:22.753Z,14.87
2017-12-23T03:29:49.752Z,14.93
2017-12-23T03:32:15.911Z,17.07
2017-12-23T03:34:42.114Z,13.90
2017-12-23T03:37:10.865Z,14.73
2017-12-23T03:39:37.119Z,18.40
2017-12-23T03:42:03.304Z,19.07
2017-12-23T03:44:30.228Z,18.10
2017-12-23T03:46:57.204Z,16.40
2017-12-23T03:49:24.128Z,17.10
2017-12-23T03:51:50.331Z,20.30
2017-12-23T03:54:16.576Z,19.17
2017-12-23T03:56:42.787Z,16.20
2017-12-23T03:59:08.967Z,19.60
2017-12-23T04:01:35.168Z,17.97
2017-12-23T04:04:01.456Z,14.00
2017-12-23T04:06:27.644Z,15.40
2017-12-23T04:08:54.572Z,13.23
2017-12-23T04:11:22.263Z,13.70
2017-12-23T04:13:48.443Z,12.83
2017-12-23T04:16:14.899Z,9.90
2017-12-23T04:18:41.080Z,12.00
2017-12-23T04:21:07.251Z,11.13
2017-12-23T04:23:33.459Z,11.70
2017-12-23T04:25:59.636Z,10.53
2017-12-23T04:28:25.867Z,11.47
2017-12-23T04:30:52.048Z,11.37
2017-12-23T04:33:18.223Z,11.70
2017-12-23T04:35:44.451Z,10.87
2017-12-23T04:38:10.632Z,12.27
2017-12-23T04:40:36.879Z,7.97
2017-12-23T04:43:03.151Z,9.03
2017-12-23T04:45:29.360Z,10.27
2017-12-23T04:47:55.603Z,11.67
2017-12-23T04:50:21.808Z,9.20
2017-12-23T04:52:52.252Z,9.70
2017-12-23T04:55:18.458Z,7.80
2017-12-23T04:57:45.383Z,8.13
2017-12-23T05:00:11.588Z,9.53
2017-12-23T05:02:37.769Z,8.37
2017-12-23T05:05:04.728Z,9.70
2017-12-23T05:07:30.972Z,12.40
2017-12-23T05:09:57.392Z,10.90
2017-12-23T05:12:23.576Z,11.60
2017-12-23T05:14:49.790Z,11.50
2017-12-23T05:17:15.991Z,13.00
2017-12-23T05:19:42.168Z,13.93
2017-12-23T05:22:09.119Z,10.17
2017-12-23T05:24:36.040Z,10.77
2017-12-23T05:27:02.456Z,12.70
2017-12-23T05:29:28.650Z,14.60
2017-12-23T05:31:54.831Z,12.97
2017-12-23T05:34:21.038Z,13.70
2017-12-23T05:36:47.248Z,12.50
2017-12-23T05:39:13.479Z,15.03
2017-12-23T05:41:39.680Z,10.97
2017-12-23T05:44:06.623Z,15.27
2017-12-23T05:46:33.547Z,12.30
2017-12-23T05:48:59.752Z,16.97
2017-12-23T05:51:25.932Z,15.33
2017-12-23T05:53:52.169Z,12.77
2017-12-23T05:56:18.347Z,13.30
2017-12-23T05:58:44.524Z,11.23
2017-12-23T06:01:10.795Z,15.17
2017-12-23T06:03:36.979Z,15.17
2017-12-23T06:06:03.184Z,13.60
2017-12-23T06:08:30.141Z,14.17
2017-12-23T06:10:57.111Z,16.37
2017-12-23T06:13:23.291Z,16.67
2017-12-23T06:15:49.476Z,15.87
2017-12-23T06:18:16.063Z,15.80
2017-12-23T06:20:42.248Z,14.40
2017-12-23T06:23:08.453Z,17.10
2017-12-23T06:25:34.657Z,17.10
2017-12-23T06:28:01.632Z,13.70
2017-12-23T06:30:28.076Z,18.07
2017-12-23T06:32:54.288Z,19.27
2017-12-23T06:35:20.468Z,14.60
2017-12-23T06:37:47.377Z,13.23
2017-12-23T06:40:13.589Z,13.20
2017-12-23T06:42:39.772Z,14.93
2017-12-23T06:45:06.267Z,15.67
2017-12-23T06:47:32.476Z,14.03
2017-12-23T06:49:58.687Z,14.70
2017-12-23T06:52:25.605Z,13.60
2017-12-23T06:54:51.815Z,16.37
2017-12-23T06:57:17.999Z,14.40
2017-12-23T06:59:45.036Z,16.17
2017-12-23T07:02:11.963Z,16.53
2017-12-23T07:04:38.136Z,14.53
2017-12-23T07:07:04.356Z,13.60
2017-12-23T07:09:31.280Z,14.63
2017-12-23T07:11:58.540Z,13.93
2017-12-23T07:14:25.499Z,14.77
2017-12-23T07:16:52.492Z,13.17
2017-12-23T07:19:19.743Z,21.47
2017-12-23T07:21:46.703Z,13.80
2017-12-23T07:24:13.132Z,14.40
2017-12-23T07:26:39.357Z,17.47
2017-12-23T07:29:05.536Z,17.23
2017-12-23T07:31:32.523Z,20.93
2017-12-23T07:33:58.718Z,17.43
2017-12-23T07:36:24.924Z,16.60
2017-12-23T07:38:51.860Z,17.20
2017-12-23T07:41:18.923Z,19.27
2017-12-23T07:43:45.124Z,16.23
2017-12-23T07:46:11.344Z,16.50
2017-12-23T07:48:37.539Z,18.07
2017-12-23T07:51:04.105Z,14.90
2017-12-23T07:53:30.284Z,13.87
2017-12-23T07:56:04.205Z,13.90
2017-12-23T07:58:30.407Z,15.97
2017-12-23T08:00:56.590Z,12.27
2017-12-23T08:03:22.829Z,13.90
2017-12-23T08:05:49.004Z,12.63
2017-12-23T08:08:15.968Z,14.50
2017-12-23T08:10:42.152Z,13.97
2017-12-23T08:13:09.075Z,14.97
2017-12-23T08:15:35.279Z,15.37
2017-12-23T08:18:01.468Z,13.00
2017-12-23T08:20:27.744Z,12.30
2017-12-23T08:22:53.947Z,11.43
2017-12-23T08:25:20.868Z,11.00
2017-12-23T08:27:50.103Z,13.00
2017-12-23T08:30:16.284Z,14.37
2017-12-23T08:32:42.700Z,13.50
2017-12-23T08:35:08.886Z,14.57
2017-12-23T08:37:35.856Z,12.83
2017-12-23T08:40:02.208Z,13.40
2017-12-23T08:42:28.412Z,15.30
2017-12-23T08:44:55.442Z,12.43
2017-12-23T08:47:22.387Z,12.87
2017-12-23T08:49:48.626Z,13.30
2017-12-23T08:52:14.868Z,12.43
2017-12-23T08:54:41.049Z,14.97
2017-12-23T08:57:07.240Z,13.03
2017-12-23T08:59:33.439Z,13.97
2017-12-23T09:01:59.615Z,12.70
2017-12-23T09:04:25.824Z,12.53
2017-12-23T09:06:52.045Z,13.23
2017-12-23T09:09:18.295Z,12.20
2017-12-23T09:11:44.471Z,12.87
2017-12-23T09:14:11.415Z,12.80
2017-12-23T09:16:37.615Z,8.53
2017-12-23T09:19:03.824Z,11.70
2017-12-23T09:21:30.055Z,12.77
2017-12-23T09:23:56.267Z,9.93
2017-12-23T09:26:22.459Z,10.53
2017-12-23T09:28:49.583Z,10.50
2017-12-23T09:31:16.563Z,8.13
2017-12-23T09:33:43.615Z,8.57
2017-12-23T09:36:09.800Z,7.53
2017-12-23T09:38:36.013Z,9.20
2017-12-23T09:41:02.231Z,8.90
2017-12-23T09:43:28.620Z,8.33
2017-12-23T09:45:55.560Z,6.43
2017-12-23T09:48:22.482Z,7.40
2017-12-23T09:50:49.491Z,7.03
2017-12-23T09:53:15.668Z,7.07
2017-12-23T09:55:41.855Z,6.93
2017-12-23T09:58:08.084Z,5.20
2017-12-23T10:00:34.355Z,4.47
2017-12-23T10:03:00.535Z,7.37
2017-12-23T10:05:26.707Z,6.30
2017-12-23T10:07:52.912Z,6.17
2017-12-23T10:10:19.104Z,5.40
2017-12-23T10:12:45.315Z,6.10
2017-12-23T10:15:12.244Z,5.17
2017-12-23T10:17:38.455Z,4.80
2017-12-23T10:20:04.649Z,4.00
2017-12-23T10:22:30.867Z,4.20
2017-12-23T10:24:57.048Z,4.80
2017-12-23T10:27:23.575Z,3.33
2017-12-23T10:29:49.787Z,4.10
2017-12-23T10:32:15.971Z,3.83
2017-12-23T10:34:42.920Z,4.20
2017-12-23T10:37:09.893Z,3.27
2017-12-23T10:39:36.096Z,3.77
2017-12-23T10:42:02.322Z,3.80
2017-12-23T10:44:29.356Z,5.37
2017-12-23T10:46:56.280Z,4.70
2017-12-23T10:49:22.488Z,5.60
2017-12-23T10:51:48.729Z,4.10
2017-12-23T10:54:15.057Z,4.67
2017-12-23T10:56:41.251Z,4.50
2017-12-23T10:59:07.426Z,6.20
2017-12-23T11:01:33.641Z,4.47
2017-12-23T11:03:59.834Z,7.40
2017-12-23T11:06:26.070Z,6.70
2017-12-23T11:08:52.247Z,6.53
2017-12-23T11:11:18.451Z,5.93
2017-12-23T11:13:44.631Z,6.33
2017-12-23T11:16:11.603Z,7.77
2017-12-23T11:18:37.780Z,7.40
2017-12-23T11:21:03.988Z,7.23
2017-12-23T11:23:30.501Z,7.50
2017-12-23T11:25:56.675Z,7.90
2017-12-23T11:28:22.855Z,5.70
2017-12-23T11:30:49.071Z,9.13
2017-12-23T11:33:15.251Z,7.27
2017-12-23T11:35:41.483Z,7.40
2017-12-23T11:38:07.668Z,7.03
2017-12-23T11:40:33.852Z,6.90
2017-12-23T11:43:00.827Z,6.80
2017-12-23T11:45:27.025Z,5.87
2017-12-23T11:47:54.328Z,8.33
2017-12-23T11:50:20.514Z,5.97
2017-12-23T11:52:47.444Z,6.83
2017-12-23T11:55:13.656Z,6.47
2017-12-23T11:57:39.839Z,6.63
2017-12-23T12:00:06.103Z,7.07
2017-12-23T12:02:32.291Z,7.23
2017-12-23T12:04:59.236Z,6.40
2017-12-23T12:07:26.159Z,8.73
2017-12-23T12:09:52.560Z,9.23
2017-12-23T12:12:18.739Z,10.40
2017-12-23T12:14:45.660Z,8.70
2017-12-23T12:17:11.860Z,8.67
2017-12-23T12:19:38.094Z,7.97
2017-12-23T12:22:04.300Z,8.77
2017-12-23T12:24:30.475Z,6.10
2017-12-23T12:26:56.879Z,9.33
2017-12-23T12:29:23.059Z,6.57
2017-12-23T12:31:50.052Z,8.20
2017-12-23T12:34:16.288Z,8.43
2017-12-23T12:36:42.468Z,7.53
2017-12-23T12:39:09.408Z,8.30
2017-12-23T12:41:36.388Z,9.33
2017-12-23T12:44:02.596Z,9.07
2017-12-23T12:46:28.771Z,7.77
2017-12-23T12:48:55.300Z,8.73
2017-12-23T12:51:21.519Z,6.70
2017-12-23T12:53:47.704Z,8.30
2017-12-23T12:56:14.652Z,10.37
2017-12-23T12:58:41.598Z,6.50
2017-12-23T13:01:08.695Z,8.90
2017-12-23T13:03:34.875Z,7.53
2017-12-23T13:06:01.799Z,8.33
2017-12-23T13:08:28.212Z,10.93
2017-12-23T13:10:54.409Z,8.37
2017-12-23T13:13:20.587Z,9.17
2017-12-23T13:15:46.792Z,9.47
2017-12-23T13:18:12.972Z,10.03
2017-12-23T13:20:39.344Z,10.43
2017-12-23T13:23:05.520Z,10.80
2017-12-23T13:25:32.444Z,10.10
2017-12-23T13:27:58.941Z,9.97
2017-12-23T13:30:25.120Z,7.77
2017-12-23T13:32:51.307Z,11.70
2017-12-23T13:35:17.644Z,10.00
2017-12-23T13:37:43.824Z,8.97
2017-12-23T13:40:10.747Z,8.57
2017-12-23T13:42:36.971Z,11.40
2017-12-23T13:45:03.157Z,13.93
2017-12-23T13:47:29.364Z,9.67
2017-12-23T13:49:55.548Z,12.33
2017-12-23T13:52:21.752Z,12.53
2017-12-23T13:54:47.964Z,8.73
2017-12-23T13:57:14.191Z,14.17
2017-12-23T13:59:40.372Z,9.27
2017-12-23T14:02:06.620Z,8.93
2017-12-23T14:04:33.564Z,12.93
2017-12-23T14:07:00.482Z,11.93
2017-12-23T14:09:26.687Z,11.00
2017-12-23T14:11:52.863Z,9.13
2017-12-23T14:14:19.816Z,12.03
2017-12-23T14:16:46.786Z,10.53
2017-12-23T14:19:13.148Z,10.50
2017-12-23T14:21:39.328Z,10.03
2017-12-23T14:24:06.251Z,11.10
2017-12-23T14:26:32.456Z,12.10
2017-12-23T14:28:58.968Z,11.30
2017-12-23T14:31:25.147Z,10.97
2017-12-23T14:33:51.381Z,13.00
2017-12-23T14:36:18.299Z,13.03
2017-12-23T14:38:44.479Z,12.27
2017-12-23T14:41:10.682Z,13.60
2017-12-23T14:43:37.669Z,11.80
2017-12-23T14:46:04.060Z,10.30
2017-12-23T14:48:30.995Z,11.83
2017-12-23T14:50:57.614Z,9.97
2017-12-23T14:53:23.831Z,13.27
2017-12-23T14:55:50.015Z,12.47
2017-12-23T14:58:17.413Z,10.03
2017-12-23T15:00:43.596Z,11.77
2017-12-23T15:03:10.557Z,13.40
2017-12-23T15:05:37.148Z,10.97
2017-12-23T15:08:03.380Z,11.50
2017-12-23T15:10:30.327Z,9.87
2017-12-23T15:12:56.620Z,14.10
2017-12-23T15:15:22.804Z,11.17
2017-12-23T15:17:49.056Z,13.60
2017-12-23T15:20:15.240Z,8.97
2017-12-23T15:22:41.472Z,11.10
2017-12-23T15:25:07.694Z,9.43
2017-12-23T15:27:34.238Z,8.77
2017-12-23T15:30:00.880Z,13.40
2017-12-23T15:32:27.109Z,8.43
2017-12-23T15:34:53.605Z,9.40
2017-12-23T15:37:20.631Z,10.93
2017-12-23T15:39:54.053Z,11.03
2017-12-23T15:42:20.302Z,10.43
2017-12-23T15:44:46.507Z,11.03
2017-12-23T15:47:13.331Z,8.97
2017-12-23T15:49:39.813Z,14.27
2017-12-23T15:52:06.023Z,8.63
2017-12-23T15:54:32.204Z,10.87
2017-12-23T15:56:59.147Z,9.50
2017-12-23T15:59:26.067Z,10.20
2017-12-23T16:01:52.509Z,9.20
2017-12-23T16:04:19.003Z,12.33
2017-12-23T16:06:45.511Z,11.50
2017-12-23T16:09:11.834Z,8.60
2017-12-23T16:11:38.797Z,9.80
2017-12-23T16:14:05.062Z,10.27
2017-12-23T16:16:31.289Z,9.50
2017-12-23T16:18:57.657Z,8.07
2017-12-23T16:21:25.097Z,10.30
2017-12-23T16:23:51.405Z,9.10
2017-12-23T16:26:17.592Z,10.40
2017-12-23T16:28:44.549Z,11.23
2017-12-23T16:31:10.846Z,9.63
2017-12-23T16:33:37.217Z,12.60
2017-12-23T16:36:04.272Z,9.77
2017-12-23T16:38:37.324Z,10.13
2017-12-23T16:41:03.556Z,9.63
2017-12-23T16:43:29.731Z,6.60
2017-12-23T16:45:56.017Z,8.60
2017-12-23T16:48:23.185Z,11.73
2017-12-23T16:50:49.788Z,10.60
2017-12-23T16:53:15.976Z,9.50
2017-12-23T16:55:42.305Z,12.63
2017-12-23T16:58:08.809Z,10.60
2017-12-23T17:00:36.648Z,9.20
2017-12-23T17:03:03.008Z,8.10
2017-12-23T17:05:29.982Z,8.70
2017-12-23T17:07:56.371Z,9.00
2017-12-23T17:10:23.080Z,6.60
2017-12-23T17:12:49.353Z,9.60
2017-12-23T17:15:16.436Z,9.27
2017-12-23T17:17:42.647Z,11.73
2017-12-23T17:20:09.000Z,9.47
2017-12-23T17:22:35.705Z,10.07
2017-12-23T17:25:02.640Z,7.77
2017-12-23T17:27:28.819Z,6.43
2017-12-23T17:30:07.482Z,6.87
2017-12-23T17:32:33.719Z,6.90
2017-12-23T17:35:00.013Z,6.80
2017-12-23T17:37:26.291Z,7.23
2017-12-23T17:39:53.337Z,8.00
2017-12-23T17:42:20.329Z,9.83
2017-12-23T17:44:46.604Z,7.57
2017-12-23T17:47:12.835Z,7.43
2017-12-23T17:49:39.126Z,7.60
2017-12-23T17:52:05.810Z,5.53
2017-12-23T17:54:33.460Z,6.07
2017-12-23T17:56:59.743Z,7.70
2017-12-23T17:59:26.551Z,5.97
2017-12-23T18:01:53.095Z,11.37
2017-12-23T18:04:20.111Z,6.87
2017-12-23T18:06:46.390Z,8.50
2017-12-23T18:09:12.867Z,7.77
2017-12-23T18:11:39.141Z,6.57
2017-12-23T18:14:06.563Z,7.63
2017-12-23T18:16:32.793Z,6.77
2017-12-23T18:18:59.920Z,5.53
2017-12-23T18:21:26.236Z,8.60
2017-12-23T18:23:52.602Z,6.50
2017-12-23T18:26:18.810Z,7.67
2017-12-23T18:28:45.088Z,7.63
2017-12-23T18:31:12.086Z,8.63
2017-12-23T18:33:38.353Z,7.50
2017-12-23T18:36:04.591Z,9.10
2017-12-23T18:38:30.865Z,7.77
2017-12-23T18:40:57.140Z,7.60
2017-12-23T18:43:23.563Z,7.03
2017-12-23T18:45:49.892Z,7.70
2017-12-23T18:48:16.399Z,9.10
2017-12-23T18:50:43.264Z,8.00
2017-12-23T18:53:10.417Z,8.33
2017-12-23T18:55:36.755Z,11.67
2017-12-23T18:58:02.991Z,8.23
2017-12-23T19:00:30.201Z,7.10
2017-12-23T19:02:56.452Z,7.80
2017-12-23T19:05:22.699Z,9.93
2017-12-23T19:07:49.691Z,7.17
2017-12-23T19:10:15.973Z,7.40
2017-12-23T19:12:42.387Z,7.07
2017-12-23T19:15:08.682Z,9.37
2017-12-23T19:17:34.900Z,11.73
2017-12-23T19:20:02.122Z,8.67
2017-12-23T19:22:29.378Z,7.90
2017-12-23T19:24:56.120Z,9.23
2017-12-23T19:27:22.382Z,7.53
2017-12-23T19:29:48.670Z,7.83
2017-12-23T19:32:14.956Z,6.30
2017-12-23T19:34:41.239Z,6.00
2017-12-23T19:37:08.566Z,6.70
2017-12-23T19:39:34.800Z,7.70
2017-12-23T19:42:01.464Z,8.50
2017-12-23T19:44:28.001Z,7.37
2017-12-23T19:46:54.272Z,6.83
2017-12-23T19:49:21.125Z,8.20
2017-12-23T19:51:47.501Z,7.20
2017-12-23T19:54:14.037Z,6.60
2017-12-23T19:56:40.370Z,9.53
2017-12-23T19:59:06.915Z,7.27
2017-12-23T20:01:33.863Z,9.03
2017-12-23T20:04:00.396Z,7.50
2017-12-23T20:06:26.720Z,6.90
2017-12-23T20:08:53.157Z,7.13
2017-12-23T20:11:19.390Z,6.80
2017-12-23T20:13:45.925Z,6.63
2017-12-23T20:16:12.357Z,9.23
2017-12-23T20:18:38.561Z,8.40
2017-12-23T20:21:04.836Z,5.53
2017-12-23T20:23:31.858Z,7.87
2017-12-23T20:25:58.338Z,6.10
2017-12-23T20:28:24.592Z,6.70
2017-12-23T20:30:50.957Z,5.53
2017-12-23T20:33:17.467Z,7.10
2017-12-23T20:35:43.826Z,7.87
2017-12-23T20:38:10.230Z,7.43
2017-12-23T20:40:37.206Z,7.20
2017-12-23T20:43:03.539Z,6.93
2017-12-23T20:45:30.443Z,6.90
2017-12-23T20:47:56.821Z,6.70
2017-12-23T20:50:23.099Z,6.60
2017-12-23T20:52:49.358Z,10.83
2017-12-23T20:55:15.623Z,9.10
2017-12-23T20:57:42.662Z,6.73
2017-12-23T21:00:09.297Z,4.67
2017-12-23T21:02:35.834Z,6.80
2017-12-23T21:05:02.158Z,7.60
2017-12-23T21:07:28.403Z,10.10
2017-12-23T21:09:54.689Z,8.70
2017-12-23T21:12:21.871Z,6.13
2017-12-23T21:14:48.744Z,7.33
2017-12-23T21:17:15.720Z,6.87
2017-12-23T21:19:43.292Z,6.33
2017-12-23T21:22:09.537Z,7.20
2017-12-23T21:24:35.790Z,6.27
2017-12-23T21:27:02.247Z,8.77
2017-12-23T21:29:29.241Z,8.33
2017-12-23T21:31:55.565Z,6.77
2017-12-23T21:34:21.841Z,7.90
2017-12-23T21:36:48.112Z,5.47
2017-12-23T21:39:14.367Z,7.70
2017-12-23T21:41:41.626Z,6.70
2017-12-23T21:44:14.827Z,6.40
2017-12-23T21:46:41.172Z,5.33
2017-12-23T21:49:08.206Z,5.53
2017-12-23T21:51:34.443Z,5.50
2017-12-23T21:54:00.678Z,8.03
2017-12-23T21:56:26.931Z,4.70
2017-12-23T21:58:53.378Z,6.67
2017-12-23T22:01:20.188Z,8.17
2017-12-23T22:03:46.439Z,5.70
2017-12-23T22:06:13.527Z,6.60
2017-12-23T22:08:39.789Z,6.30
2017-12-23T22:11:06.106Z,7.57
2017-12-23T22:13:32.443Z,5.23
2017-12-23T22:15:58.778Z,5.70
2017-12-23T22:18:25.036Z,10.23
2017-12-23T22:20:52.974Z,5.30
2017-12-23T22:23:19.255Z,7.70
2017-12-23T22:25:45.525Z,7.20
2017-12-23T22:28:11.809Z,6.23
2017-12-23T22:30:38.889Z,5.47
2017-12-23T22:33:05.156Z,5.70
2017-12-23T22:35:31.477Z,5.63
2017-12-23T22:37:57.943Z,6.90
2017-12-23T22:40:25.677Z,6.10
2017-12-23T22:42:51.886Z,7.83
2017-12-23T22:45:18.160Z,6.23
2017-12-23T22:47:44.431Z,6.93
2017-12-23T22:50:10.773Z,6.90
2017-12-23T22:52:37.024Z,8.00
2017-12-23T22:55:03.339Z,9.60
2017-12-23T22:57:30.089Z,8.77
2017-12-23T22:59:56.431Z,6.70
2017-12-23T23:02:23.054Z,7.23
2017-12-23T23:04:50.137Z,6.57
2017-12-23T23:07:16.629Z,8.70
2017-12-23T23:09:42.846Z,6.33
2017-12-23T23:12:09.118Z,7.43
2017-12-23T23:14:35.423Z,8.47
2017-12-23T23:17:01.747Z,7.40
2017-12-23T23:19:27.953Z,6.90
2017-12-23T23:22:01.251Z,8.40
2017-12-23T23:24:27.605Z,5.53
2017-12-23T23:26:53.814Z,5.53
2017-12-23T23:29:20.083Z,6.90
2017-12-23T23:31:46.285Z,6.03
2017-12-23T23:34:19.455Z,7.80
2017-12-23T23:36:46.892Z,7.43
2017-12-23T23:39:13.862Z,8.17
2017-12-23T23:41:40.136Z,7.70
2017-12-23T23:44:06.415Z,6.50
2017-12-23T23:46:33.366Z,5.93
2017-12-23T23:48:59.594Z,5.43
2017-12-23T23:51:25.856Z,6.40
2017-12-23T23:53:52.305Z,6.40
2017-12-23T23:56:18.510Z,7.23
2017-12-23T23:58:44.713Z,5.90
